sensor_id;sensor_type;location;lat;lon;timestamp;pressure;altitude;pressure_sealevel;temperature
50206;BMP280;36098;48.390;10.856;2024-03-02T00:01:50;94962.22;;;17.15
50206;BMP280;36098;48.390;10.856;2024-03-02T00:04:15;94963.53;;;17.17
50206;BMP280;36098;48.390;10.856;2024-03-02T00:06:40;94968.75;;;17.17
50206;BMP280;36098;48.390;10.856;2024-03-02T00:09:08;94973.97;;;17.17
50206;BMP280;36098;48.390;10.856;2024-03-02T00:11:35;94961.19;;;17.16
50206;BMP280;36098;48.390;10.856;2024-03-02T00:14:01;94955.97;;;17.16
50206;BMP280;36098;48.390;10.856;2024-03-02T00:16:30;94958.56;;;17.16
50206;BMP280;36098;48.390;10.856;2024-03-02T00:18:55;94964.06;;;17.14
50206;BMP280;36098;48.390;10.856;2024-03-02T00:21:26;94961.19;;;17.16
50206;BMP280;36098;48.390;10.856;2024-03-02T00:23:52;94965.63;;;17.15
50206;BMP280;36098;48.390;10.856;2024-03-02T00:26:18;94962.50;;;17.13
50206;BMP280;36098;48.390;10.856;2024-03-02T00:28:44;94961.69;;;17.13
50206;BMP280;36098;48.390;10.856;2024-03-02T00:31:13;94960.94;;;17.12
50206;BMP280;36098;48.390;10.856;2024-03-02T00:33:44;94970.31;;;17.13
50206;BMP280;36098;48.390;10.856;2024-03-02T00:36:12;94969.00;;;17.11
50206;BMP280;36098;48.390;10.856;2024-03-02T00:38:48;94968.22;;;17.10
50206;BMP280;36098;48.390;10.856;2024-03-02T00:41:21;94971.59;;;17.11
50206;BMP280;36098;48.390;10.856;2024-03-02T00:44:01;94973.44;;;17.10
50206;BMP280;36098;48.390;10.856;2024-03-02T00:46:36;94981.28;;;17.10
50206;BMP280;36098;48.390;10.856;2024-03-02T00:49:03;94977.09;;;17.09
50206;BMP280;36098;48.390;10.856;2024-03-02T00:51:30;94973.44;;;17.10
50206;BMP280;36098;48.390;10.856;2024-03-02T00:53:58;94972.91;;;17.08
50206;BMP280;36098;48.390;10.856;2024-03-02T00:56:25;94970.28;;;17.08
50206;BMP280;36098;48.390;10.856;2024-03-02T00:58:52;94971.09;;;17.09
50206;BMP280;36098;48.390;10.856;2024-03-02T01:01:17;94968.47;;;17.09
50206;BMP280;36098;48.390;10.856;2024-03-02T01:03:44;94968.72;;;17.07
50206;BMP280;36098;48.390;10.856;2024-03-02T01:06:10;94973.16;;;17.07
50206;BMP280;36098;48.390;10.856;2024-03-02T01:08:35;94963.78;;;17.06
50206;BMP280;36098;48.390;10.856;2024-03-02T01:11:01;94967.16;;;17.06
50206;BMP280;36098;48.390;10.856;2024-03-02T01:13:27;94972.38;;;17.06
50206;BMP280;36098;48.390;10.856;2024-03-02T01:15:52;94985.41;;;17.06
50206;BMP280;36098;48.390;10.856;2024-03-02T01:18:18;94972.38;;;17.06
50206;BMP280;36098;48.390;10.856;2024-03-02T01:20:43;94983.06;;;17.05
50206;BMP280;36098;48.390;10.856;2024-03-02T01:23:09;94970.03;;;17.05
50206;BMP280;36098;48.390;10.856;2024-03-02T01:25:34;94969.25;;;17.04
50206;BMP280;36098;48.390;10.856;2024-03-02T01:28:00;94960.13;;;17.02
50206;BMP280;36098;48.390;10.856;2024-03-02T01:30:26;94978.09;;;17.03
50206;BMP280;36098;48.390;10.856;2024-03-02T01:32:51;94966.09;;;17.02
50206;BMP280;36098;48.390;10.856;2024-03-02T01:35:16;94965.88;;;17.04
50206;BMP280;36098;48.390;10.856;2024-03-02T01:37:41;94971.84;;;17.04
50206;BMP280;36098;48.390;10.856;2024-03-02T01:40:07;94972.88;;;17.03
50206;BMP280;36098;48.390;10.856;2024-03-02T01:42:38;94960.88;;;17.02
50206;BMP280;36098;48.390;10.856;2024-03-02T01:45:08;94966.09;;;17.02
50206;BMP280;36098;48.390;10.856;2024-03-02T01:47:33;94964.53;;;17.01
50206;BMP280;36098;48.390;10.856;2024-03-02T01:49:59;94974.19;;;17.01
50206;BMP280;36098;48.390;10.856;2024-03-02T01:52:25;94961.41;;;16.99
50206;BMP280;36098;48.390;10.856;2024-03-02T01:54:50;94962.19;;;17.00
50206;BMP280;36098;48.390;10.856;2024-03-02T01:57:16;94959.03;;;16.98
50206;BMP280;36098;48.390;10.856;2024-03-02T01:59:41;94958.03;;;16.99
50206;BMP280;36098;48.390;10.856;2024-03-02T02:02:07;94954.63;;;16.98
50206;BMP280;36098;48.390;10.856;2024-03-02T02:04:32;94957.22;;;16.98
50206;BMP280;36098;48.390;10.856;2024-03-02T02:06:58;94957.22;;;16.98
50206;BMP280;36098;48.390;10.856;2024-03-02T02:09:23;94950.44;;;16.97
50206;BMP280;36098;48.390;10.856;2024-03-02T02:11:50;94946.00;;;16.98
50206;BMP280;36098;48.390;10.856;2024-03-02T02:14:16;94948.34;;;16.94
50206;BMP280;36098;48.390;10.856;2024-03-02T02:16:41;94940.25;;;16.96
50206;BMP280;36098;48.390;10.856;2024-03-02T02:19:06;94941.59;;;16.98
50206;BMP280;36098;48.390;10.856;2024-03-02T02:21:31;94943.66;;;16.96
50206;BMP280;36098;48.390;10.856;2024-03-02T02:23:57;94950.69;;;16.96
50206;BMP280;36098;48.390;10.856;2024-03-02T02:26:22;94950.69;;;16.96
50206;BMP280;36098;48.390;10.856;2024-03-02T02:28:47;94948.09;;;16.96
50206;BMP280;36098;48.390;10.856;2024-03-02T02:31:13;94948.34;;;16.94
50206;BMP280;36098;48.390;10.856;2024-03-02T02:33:42;94945.75;;;16.94
50206;BMP280;36098;48.390;10.856;2024-03-02T02:36:08;94932.97;;;16.93
50206;BMP280;36098;48.390;10.856;2024-03-02T02:38:38;94940.53;;;16.94
50206;BMP280;36098;48.390;10.856;2024-03-02T02:41:03;94928.78;;;16.92
50206;BMP280;36098;48.390;10.856;2024-03-02T02:43:29;94924.38;;;16.92
50206;BMP280;36098;48.390;10.856;2024-03-02T02:45:54;94925.41;;;16.91
50206;BMP280;36098;48.390;10.856;2024-03-02T02:48:19;94926.19;;;16.92
50206;BMP280;36098;48.390;10.856;2024-03-02T02:50:44;94936.38;;;16.93
50206;BMP280;36098;48.390;10.856;2024-03-02T02:53:10;94926.44;;;16.90
50206;BMP280;36098;48.390;10.856;2024-03-02T02:55:35;94935.56;;;16.93
50206;BMP280;36098;48.390;10.856;2024-03-02T02:58:08;94937.66;;;16.91
50206;BMP280;36098;48.390;10.856;2024-03-02T03:00:33;94944.69;;;16.90
50206;BMP280;36098;48.390;10.856;2024-03-02T03:02:58;94943.66;;;16.91
50206;BMP280;36098;48.390;10.856;2024-03-02T03:05:24;94956.94;;;16.90
50206;BMP280;36098;48.390;10.856;2024-03-02T03:07:49;94956.94;;;16.90
50206;BMP280;36098;48.390;10.856;2024-03-02T03:10:16;94953.00;;;16.87
50206;BMP280;36098;48.390;10.856;2024-03-02T03:12:42;94960.84;;;16.87
50206;BMP280;36098;48.390;10.856;2024-03-02T03:15:10;94959.25;;;16.86
50206;BMP280;36098;48.390;10.856;2024-03-02T03:17:36;94964.25;;;16.88
50206;BMP280;36098;48.390;10.856;2024-03-02T03:20:03;94967.88;;;16.87
50206;BMP280;36098;48.390;10.856;2024-03-02T03:22:29;94968.66;;;16.87
50206;BMP280;36098;48.390;10.856;2024-03-02T03:24:54;94968.13;;;16.85
50206;BMP280;36098;48.390;10.856;2024-03-02T03:27:20;94970.75;;;16.85
50206;BMP280;36098;48.390;10.856;2024-03-02T03:29:45;94974.38;;;16.84
50206;BMP280;36098;48.390;10.856;2024-03-02T03:32:11;94975.19;;;16.85
50206;BMP280;36098;48.390;10.856;2024-03-02T03:34:36;94978.84;;;16.84
50206;BMP280;36098;48.390;10.856;2024-03-02T03:37:02;94981.16;;;16.85
50206;BMP280;36098;48.390;10.856;2024-03-02T03:39:28;94978.03;;;16.83
50206;BMP280;36098;48.390;10.856;2024-03-02T03:41:54;94976.47;;;16.82
50206;BMP280;36098;48.390;10.856;2024-03-02T03:44:19;94975.69;;;16.82
50206;BMP280;36098;48.390;10.856;2024-03-02T03:46:44;94989.50;;;16.82
50206;BMP280;36098;48.390;10.856;2024-03-02T03:49:09;94981.41;;;16.79
50206;BMP280;36098;48.390;10.856;2024-03-02T03:51:35;94990.00;;;16.79
50206;BMP280;36098;48.390;10.856;2024-03-02T03:54:00;94990.53;;;16.81
50206;BMP280;36098;48.390;10.856;2024-03-02T03:56:26;94993.41;;;16.80
50206;BMP280;36098;48.390;10.856;2024-03-02T03:58:51;94994.19;;;16.80
50206;BMP280;36098;48.390;10.856;2024-03-02T04:01:17;95003.84;;;16.80
50206;BMP280;36098;48.390;10.856;2024-03-02T04:03:42;95007.22;;;16.80
50206;BMP280;36098;48.390;10.856;2024-03-02T04:06:08;94997.84;;;16.79
50206;BMP280;36098;48.390;10.856;2024-03-02T04:08:33;94997.31;;;16.77
50206;BMP280;36098;48.390;10.856;2024-03-02T04:10:58;95000.69;;;16.78
50206;BMP280;36098;48.390;10.856;2024-03-02T04:13:23;94992.63;;;16.79
50206;BMP280;36098;48.390;10.856;2024-03-02T04:15:50;94997.03;;;16.79
50206;BMP280;36098;48.390;10.856;2024-03-02T04:18:15;94994.69;;;16.77
50206;BMP280;36098;48.390;10.856;2024-03-02T04:20:41;94992.34;;;16.76
50206;BMP280;36098;48.390;10.856;2024-03-02T04:23:06;95005.13;;;16.77
50206;BMP280;36098;48.390;10.856;2024-03-02T04:25:33;94996.50;;;16.77
50206;BMP280;36098;48.390;10.856;2024-03-02T04:27:58;94998.34;;;16.76
50206;BMP280;36098;48.390;10.856;2024-03-02T04:30:24;95003.56;;;16.76
50206;BMP280;36098;48.390;10.856;2024-03-02T04:32:50;94995.22;;;16.74
50206;BMP280;36098;48.390;10.856;2024-03-02T04:35:15;95002.78;;;16.76
50206;BMP280;36098;48.390;10.856;2024-03-02T04:37:40;95002.50;;;16.72
50206;BMP280;36098;48.390;10.856;2024-03-02T04:40:06;95008.25;;;16.74
50206;BMP280;36098;48.390;10.856;2024-03-02T04:42:33;95005.66;;;16.74
50206;BMP280;36098;48.390;10.856;2024-03-02T04:44:59;95002.50;;;16.72
50206;BMP280;36098;48.390;10.856;2024-03-02T04:47:27;95011.91;;;16.73
50206;BMP280;36098;48.390;10.856;2024-03-02T04:49:52;95004.84;;;16.74
50206;BMP280;36098;48.390;10.856;2024-03-02T04:52:18;95004.06;;;16.73
50206;BMP280;36098;48.390;10.856;2024-03-02T04:54:43;95009.28;;;16.73
50206;BMP280;36098;48.390;10.856;2024-03-02T04:57:27;95010.34;;;16.72
50206;BMP280;36098;48.390;10.856;2024-03-02T04:59:52;95007.72;;;16.72
50206;BMP280;36098;48.390;10.856;2024-03-02T05:02:17;95009.00;;;16.70
50206;BMP280;36098;48.390;10.856;2024-03-02T05:04:43;95008.25;;;16.69
50206;BMP280;36098;48.390;10.856;2024-03-02T05:07:08;95004.84;;;16.69
50206;BMP280;36098;48.390;10.856;2024-03-02T05:09:33;95004.84;;;16.69
50206;BMP280;36098;48.390;10.856;2024-03-02T05:11:58;95004.31;;;16.67
50206;BMP280;36098;48.390;10.856;2024-03-02T05:14:42;95010.03;;;16.69
50206;BMP280;36098;48.390;10.856;2024-03-02T05:17:07;95015.25;;;16.69
50206;BMP280;36098;48.390;10.856;2024-03-02T05:19:33;95019.44;;;16.70
50206;BMP280;36098;48.390;10.856;2024-03-02T05:21:58;95024.88;;;16.68
50206;BMP280;36098;48.390;10.856;2024-03-02T05:24:24;95017.06;;;16.68
50206;BMP280;36098;48.390;10.856;2024-03-02T05:26:49;95020.19;;;16.65
50206;BMP280;36098;48.390;10.856;2024-03-02T05:29:14;95022.56;;;16.67
50206;BMP280;36098;48.390;10.856;2024-03-02T05:31:39;95021.50;;;16.68
50206;BMP280;36098;48.390;10.856;2024-03-02T05:34:05;95018.38;;;16.66
50206;BMP280;36098;48.390;10.856;2024-03-02T05:36:31;95021.22;;;16.64
50206;BMP280;36098;48.390;10.856;2024-03-02T05:38:57;95021.22;;;16.64
50206;BMP280;36098;48.390;10.856;2024-03-02T05:41:22;95022.03;;;16.65
50206;BMP280;36098;48.390;10.856;2024-03-02T05:43:47;95014.97;;;16.65
50206;BMP280;36098;48.390;10.856;2024-03-02T05:46:12;95028.00;;;16.65
50206;BMP280;36098;48.390;10.856;2024-03-02T05:48:38;95016.28;;;16.63
50206;BMP280;36098;48.390;10.856;2024-03-02T05:51:03;95019.66;;;16.63
50206;BMP280;36098;48.390;10.856;2024-03-02T05:53:28;95018.09;;;16.62
50206;BMP280;36098;48.390;10.856;2024-03-02T05:55:54;95005.06;;;16.62
50206;BMP280;36098;48.390;10.856;2024-03-02T05:58:21;95006.88;;;16.62
50206;BMP280;36098;48.390;10.856;2024-03-02T06:00:49;95006.09;;;16.61
50206;BMP280;36098;48.390;10.856;2024-03-02T06:03:14;95007.94;;;16.61
50206;BMP280;36098;48.390;10.856;2024-03-02T06:05:40;95011.31;;;16.61
50206;BMP280;36098;48.390;10.856;2024-03-02T06:08:07;95008.69;;;16.61
50206;BMP280;36098;48.390;10.856;2024-03-02T06:10:32;95010.03;;;16.64
50206;BMP280;36098;48.390;10.856;2024-03-02T06:12:58;95009.75;;;16.65
50206;BMP280;36098;48.390;10.856;2024-03-02T06:15:24;95002.72;;;16.66
50206;BMP280;36098;48.390;10.856;2024-03-02T06:17:49;95006.09;;;16.66
50206;BMP280;36098;48.390;10.856;2024-03-02T06:20:15;95006.09;;;16.66
50206;BMP280;36098;48.390;10.856;2024-03-02T06:22:40;95011.84;;;16.68
50206;BMP280;36098;48.390;10.856;2024-03-02T06:25:06;95008.25;;;16.69
50206;BMP280;36098;48.390;10.856;2024-03-02T06:27:31;95009.81;;;16.70
50206;BMP280;36098;48.390;10.856;2024-03-02T06:29:57;95011.63;;;16.75
50206;BMP280;36098;48.390;10.856;2024-03-02T06:32:22;95023.91;;;16.79
50206;BMP280;36098;48.390;10.856;2024-03-02T06:34:50;95020.78;;;16.82
50206;BMP280;36098;48.390;10.856;2024-03-02T06:37:15;95009.31;;;16.83
50206;BMP280;36098;48.390;10.856;2024-03-02T06:39:41;95023.41;;;16.87
50206;BMP280;36098;48.390;10.856;2024-03-02T06:42:06;95017.16;;;16.88
50206;BMP280;36098;48.390;10.856;2024-03-02T06:44:31;95015.09;;;16.90
50206;BMP280;36098;48.390;10.856;2024-03-02T06:46:57;95008.88;;;16.96
50206;BMP280;36098;48.390;10.856;2024-03-02T06:49:22;95013.28;;;16.96
50206;BMP280;36098;48.390;10.856;2024-03-02T06:51:47;95016.94;;;16.95
50206;BMP280;36098;48.390;10.856;2024-03-02T06:54:12;95014.84;;;16.97
50206;BMP280;36098;48.390;10.856;2024-03-02T06:56:37;95013.28;;;16.96
50206;BMP280;36098;48.390;10.856;2024-03-02T06:59:04;95010.19;;;16.99
50206;BMP280;36098;48.390;10.856;2024-03-02T07:01:29;95013.56;;;16.99
50206;BMP280;36098;48.390;10.856;2024-03-02T07:03:54;95018.78;;;16.99
50206;BMP280;36098;48.390;10.856;2024-03-02T07:06:20;95018.53;;;17.01
50206;BMP280;36098;48.390;10.856;2024-03-02T07:08:45;95012.28;;;17.02
50206;BMP280;36098;48.390;10.856;2024-03-02T07:11:10;95007.06;;;17.02
50206;BMP280;36098;48.390;10.856;2024-03-02T07:13:36;95017.75;;;17.05
50206;BMP280;36098;48.390;10.856;2024-03-02T07:16:01;95015.41;;;17.04
50206;BMP280;36098;48.390;10.856;2024-03-02T07:18:30;95013.84;;;17.08
50206;BMP280;36098;48.390;10.856;2024-03-02T07:21:10;95024.06;;;17.09
50206;BMP280;36098;48.390;10.856;2024-03-02T07:23:35;95021.16;;;17.11
50206;BMP280;36098;48.390;10.856;2024-03-02T07:26:01;95023.00;;;17.10
50206;BMP280;36098;48.390;10.856;2024-03-02T07:28:27;95021.16;;;17.11
50206;BMP280;36098;48.390;10.856;2024-03-02T07:30:59;95023.78;;;17.11
50206;BMP280;36098;48.390;10.856;2024-03-02T07:33:24;95029.00;;;17.11
50206;BMP280;36098;48.390;10.856;2024-03-02T07:35:50;95026.66;;;17.14
50206;BMP280;36098;48.390;10.856;2024-03-02T07:38:15;95034.78;;;17.23
50206;BMP280;36098;48.390;10.856;2024-03-02T07:40:41;95030.84;;;17.20
50206;BMP280;36098;48.390;10.856;2024-03-02T07:43:06;95031.66;;;17.21
50206;BMP280;36098;48.390;10.856;2024-03-02T07:45:31;95036.06;;;17.20
50206;BMP280;36098;48.390;10.856;2024-03-02T07:47:56;95028.75;;;17.22
50206;BMP280;36098;48.390;10.856;2024-03-02T07:50:22;95034.28;;;17.26
50206;BMP280;36098;48.390;10.856;2024-03-02T07:52:47;95041.28;;;17.25
50206;BMP280;36098;48.390;10.856;2024-03-02T07:55:13;95035.56;;;17.23
50206;BMP280;36098;48.390;10.856;2024-03-02T07:57:38;95034.50;;;17.24
50206;BMP280;36098;48.390;10.856;2024-03-02T08:00:05;95038.69;;;17.25
50206;BMP280;36098;48.390;10.856;2024-03-02T08:02:31;95034.25;;;17.21
50206;BMP280;36098;48.390;10.856;2024-03-02T08:04:56;95042.56;;;17.18
50206;BMP280;36098;48.390;10.856;2024-03-02T08:07:21;95041.81;;;17.17
50206;BMP280;36098;48.390;10.856;2024-03-02T08:09:47;95038.16;;;17.13
50206;BMP280;36098;48.390;10.856;2024-03-02T08:12:12;95040.47;;;17.10
50206;BMP280;36098;48.390;10.856;2024-03-02T08:14:37;95048.28;;;17.10
50206;BMP280;36098;48.390;10.856;2024-03-02T08:17:03;95045.94;;;17.08
50206;BMP280;36098;48.390;10.856;2024-03-02T08:19:34;95043.59;;;17.07
50206;BMP280;36098;48.390;10.856;2024-03-02T08:21:59;95046.44;;;17.05
50206;BMP280;36098;48.390;10.856;2024-03-02T08:24:25;95043.06;;;17.05
50206;BMP280;36098;48.390;10.856;2024-03-02T08:26:50;95046.19;;;17.07
50206;BMP280;36098;48.390;10.856;2024-03-02T08:29:16;95046.97;;;17.07
50206;BMP280;36098;48.390;10.856;2024-03-02T08:31:41;95054.25;;;17.05
50206;BMP280;36098;48.390;10.856;2024-03-02T08:34:06;95051.66;;;17.05
50206;BMP280;36098;48.390;10.856;2024-03-02T08:36:31;95054.25;;;17.05
50206;BMP280;36098;48.390;10.856;2024-03-02T08:38:57;95056.88;;;17.05
50206;BMP280;36098;48.390;10.856;2024-03-02T08:41:22;95053.50;;;17.05
50206;BMP280;36098;48.390;10.856;2024-03-02T08:43:48;95054.25;;;17.05
50206;BMP280;36098;48.390;10.856;2024-03-02T08:46:13;95041.50;;;17.04
50206;BMP280;36098;48.390;10.856;2024-03-02T08:48:39;95044.88;;;17.04
50206;BMP280;36098;48.390;10.856;2024-03-02T08:51:04;95045.91;;;17.03
50206;BMP280;36098;48.390;10.856;2024-03-02T08:53:32;95046.72;;;17.04
50206;BMP280;36098;48.390;10.856;2024-03-02T08:55:58;95048.28;;;17.05
50206;BMP280;36098;48.390;10.856;2024-03-02T08:58:23;95044.88;;;17.04
50206;BMP280;36098;48.390;10.856;2024-03-02T09:00:49;95047.47;;;17.04
50206;BMP280;36098;48.390;10.856;2024-03-02T09:03:14;95050.09;;;17.04
50206;BMP280;36098;48.390;10.856;2024-03-02T09:05:40;95049.31;;;17.04
50206;BMP280;36098;48.390;10.856;2024-03-02T09:08:05;95044.88;;;17.04
50206;BMP280;36098;48.390;10.856;2024-03-02T09:10:30;95051.94;;;17.04
50206;BMP280;36098;48.390;10.856;2024-03-02T09:12:56;95043.84;;;17.05
50206;BMP280;36098;48.390;10.856;2024-03-02T09:15:21;95044.94;;;17.14
50206;BMP280;36098;48.390;10.856;2024-03-02T09:17:46;95037.09;;;17.14
50206;BMP280;36098;48.390;10.856;2024-03-02T09:20:12;95049.63;;;17.17
50206;BMP280;36098;48.390;10.856;2024-03-02T09:22:39;95043.38;;;17.18
50206;BMP280;36098;48.390;10.856;2024-03-02T09:25:04;95043.91;;;17.20
50206;BMP280;36098;48.390;10.856;2024-03-02T09:27:29;95039.72;;;17.19
50206;BMP280;36098;48.390;10.856;2024-03-02T09:29:55;95046.50;;;17.20
50206;BMP280;36098;48.390;10.856;2024-03-02T09:32:20;95037.34;;;17.18
50206;BMP280;36098;48.390;10.856;2024-03-02T09:34:45;95042.31;;;17.19
50206;BMP280;36098;48.390;10.856;2024-03-02T09:37:13;95045.22;;;17.23
50206;BMP280;36098;48.390;10.856;2024-03-02T09:39:38;95036.59;;;17.22
50206;BMP280;36098;48.390;10.856;2024-03-02T09:42:04;95040.00;;;17.23
50206;BMP280;36098;48.390;10.856;2024-03-02T09:44:29;95034.50;;;17.24
50206;BMP280;36098;48.390;10.856;2024-03-02T09:46:55;95032.69;;;17.25
50206;BMP280;36098;48.390;10.856;2024-03-02T09:49:21;95029.06;;;17.26
50206;BMP280;36098;48.390;10.856;2024-03-02T09:51:49;95025.41;;;17.27
50206;BMP280;36098;48.390;10.856;2024-03-02T09:54:15;95025.69;;;17.30
50206;BMP280;36098;48.390;10.856;2024-03-02T09:56:41;95034.28;;;17.31
50206;BMP280;36098;48.390;10.856;2024-03-02T09:59:06;95028.81;;;17.32
50206;BMP280;36098;48.390;10.856;2024-03-02T10:01:32;95033.78;;;17.34
50206;BMP280;36098;48.390;10.856;2024-03-02T10:03:59;95027.78;;;17.33
50206;BMP280;36098;48.390;10.856;2024-03-02T10:06:26;95018.16;;;17.39
50206;BMP280;36098;48.390;10.856;2024-03-02T10:08:51;95014.75;;;17.43
50206;BMP280;36098;48.390;10.856;2024-03-02T10:14:14;95015.81;;;17.47
50206;BMP280;36098;48.390;10.856;2024-03-02T10:16:41;95014.28;;;17.51
50206;BMP280;36098;48.390;10.856;2024-03-02T10:19:22;95017.94;;;17.55
50206;BMP280;36098;48.390;10.856;2024-03-02T10:21:49;95013.75;;;17.59
50206;BMP280;36098;48.390;10.856;2024-03-02T10:24:15;95007.50;;;17.60
50206;BMP280;36098;48.390;10.856;2024-03-02T10:26:41;95008.00;;;17.62
50206;BMP280;36098;48.390;10.856;2024-03-02T10:29:08;95009.56;;;17.63
50206;BMP280;36098;48.390;10.856;2024-03-02T10:31:33;94998.88;;;17.65
50206;BMP280;36098;48.390;10.856;2024-03-02T10:33:59;95007.00;;;17.68
50206;BMP280;36098;48.390;10.856;2024-03-02T10:36:25;94992.38;;;17.72
50206;BMP280;36098;48.390;10.856;2024-03-02T10:38:51;94997.59;;;17.72
50206;BMP280;36098;48.390;10.856;2024-03-02T10:41:23;94997.06;;;17.75
50206;BMP280;36098;48.390;10.856;2024-03-02T10:43:50;94996.53;;;17.78
50206;BMP280;36098;48.390;10.856;2024-03-02T10:46:19;94988.47;;;17.79
50206;BMP280;36098;48.390;10.856;2024-03-02T10:48:45;94990.53;;;17.82
50206;BMP280;36098;48.390;10.856;2024-03-02T10:51:11;94974.34;;;17.85
50206;BMP280;36098;48.390;10.856;2024-03-02T10:53:37;94981.66;;;17.88
50206;BMP280;36098;48.390;10.856;2024-03-02T10:56:04;94969.41;;;17.89
50206;BMP280;36098;48.390;10.856;2024-03-02T10:58:32;94974.63;;;17.89
50206;BMP280;36098;48.390;10.856;2024-03-02T11:01:02;94968.88;;;17.87
50206;BMP280;36098;48.390;10.856;2024-03-02T11:03:30;94962.84;;;17.91
50206;BMP280;36098;48.390;10.856;2024-03-02T11:05:59;94962.06;;;17.96
50206;BMP280;36098;48.390;10.856;2024-03-02T11:08:26;94957.38;;;17.93
50206;BMP280;36098;48.390;10.856;2024-03-02T11:11:04;94955.78;;;18.02
50206;BMP280;36098;48.390;10.856;2024-03-02T11:13:32;94952.13;;;18.03
50206;BMP280;36098;48.390;10.856;2024-03-02T11:18:52;94945.84;;;18.04
50206;BMP280;36098;48.390;10.856;2024-03-02T11:21:18;94944.31;;;18.08
50206;BMP280;36098;48.390;10.856;2024-03-02T11:23:43;94943.78;;;18.11
50206;BMP280;36098;48.390;10.856;2024-03-02T11:26:22;94944.28;;;18.18
50206;BMP280;36098;48.390;10.856;2024-03-02T11:28:50;94932.25;;;18.17
50206;BMP280;36098;48.390;10.856;2024-03-02T11:31:15;94924.16;;;18.18
50206;BMP280;36098;48.390;10.856;2024-03-02T11:33:41;94934.88;;;18.12
50206;BMP280;36098;48.390;10.856;2024-03-02T11:36:07;94917.69;;;17.91
50206;BMP280;36098;48.390;10.856;2024-03-02T11:38:34;94926.81;;;17.93
50206;BMP280;36098;48.390;10.856;2024-03-02T11:41:05;94917.66;;;18.01
50206;BMP280;36098;48.390;10.856;2024-03-02T11:43:32;94920.25;;;18.01
50206;BMP280;36098;48.390;10.856;2024-03-02T11:46:03;94909.28;;;18.14
50206;BMP280;36098;48.390;10.856;2024-03-02T11:48:32;94915.03;;;18.11
50206;BMP280;36098;48.390;10.856;2024-03-02T11:50:58;94912.97;;;18.08
50206;BMP280;36098;48.390;10.856;2024-03-02T11:53:24;94906.94;;;18.07
50206;BMP280;36098;48.390;10.856;2024-03-02T11:55:55;94897.28;;;18.08
50206;BMP280;36098;48.390;10.856;2024-03-02T11:58:20;94895.16;;;18.05
50206;BMP280;36098;48.390;10.856;2024-03-02T12:00:51;94891.00;;;18.09
50206;BMP280;36098;48.390;10.856;2024-03-02T12:03:16;94887.84;;;18.12
50206;BMP280;36098;48.390;10.856;2024-03-02T12:05:42;94883.16;;;18.14
50206;BMP280;36098;48.390;10.856;2024-03-02T12:08:08;94878.94;;;18.18
50206;BMP280;36098;48.390;10.856;2024-03-02T12:10:35;94880.25;;;18.20
50206;BMP280;36098;48.390;10.856;2024-03-02T12:13:03;94876.84;;;18.35
50206;BMP280;36098;48.390;10.856;2024-03-02T12:15:30;94875.53;;;18.37
50206;BMP280;36098;48.390;10.856;2024-03-02T12:17:57;94874.22;;;18.35
50206;BMP280;36098;48.390;10.856;2024-03-02T12:20:24;94865.84;;;18.38
50206;BMP280;36098;48.390;10.856;2024-03-02T12:22:53;94863.50;;;18.41
50206;BMP280;36098;48.390;10.856;2024-03-02T12:25:23;94856.41;;;18.42
50206;BMP280;36098;48.390;10.856;2024-03-02T12:27:51;94862.66;;;18.46
50206;BMP280;36098;48.390;10.856;2024-03-02T12:30:17;94855.09;;;18.49
50206;BMP280;36098;48.390;10.856;2024-03-02T12:32:44;94854.53;;;18.52
50206;BMP280;36098;48.390;10.856;2024-03-02T12:35:12;94849.06;;;18.54
50206;BMP280;36098;48.390;10.856;2024-03-02T12:37:42;94840.94;;;18.55
50206;BMP280;36098;48.390;10.856;2024-03-02T12:40:10;94841.19;;;18.59
50206;BMP280;36098;48.390;10.856;2024-03-02T12:42:36;94832.28;;;18.60
50206;BMP280;36098;48.390;10.856;2024-03-02T12:45:02;94819.72;;;18.62
50206;BMP280;36098;48.390;10.856;2024-03-02T12:47:28;94812.94;;;18.61
50206;BMP280;36098;48.390;10.856;2024-03-02T12:49:54;94815.53;;;18.66
50206;BMP280;36098;48.390;10.856;2024-03-02T12:52:21;94810.03;;;18.67
50206;BMP280;36098;48.390;10.856;2024-03-02T12:54:47;94809.53;;;18.65
50206;BMP280;36098;48.390;10.856;2024-03-02T12:57:17;94814.50;;;18.62
50206;BMP280;36098;48.390;10.856;2024-03-02T12:59:45;94810.88;;;18.58
50206;BMP280;36098;48.390;10.856;2024-03-02T13:02:17;94810.88;;;18.58
50206;BMP280;36098;48.390;10.856;2024-03-02T13:04:42;94802.47;;;18.61
50206;BMP280;36098;48.390;10.856;2024-03-02T13:07:10;94797.25;;;18.61
50206;BMP280;36098;48.390;10.856;2024-03-02T13:09:35;94800.38;;;18.63
50206;BMP280;36098;48.390;10.856;2024-03-02T13:12:01;94801.94;;;18.64
50206;BMP280;36098;48.390;10.856;2024-03-02T13:14:26;94795.94;;;18.63
50206;BMP280;36098;48.390;10.856;2024-03-02T13:16:51;94800.88;;;18.65
50206;BMP280;36098;48.390;10.856;2024-03-02T13:19:18;94796.19;;;18.67
50206;BMP280;36098;48.390;10.856;2024-03-02T13:21:44;94792.50;;;18.68
50206;BMP280;36098;48.390;10.856;2024-03-02T13:24:09;94801.38;;;18.72
50206;BMP280;36098;48.390;10.856;2024-03-02T13:26:35;94788.31;;;18.72
50206;BMP280;36098;48.390;10.856;2024-03-02T13:29:00;94801.59;;;18.75
50206;BMP280;36098;48.390;10.856;2024-03-02T13:31:26;94778.84;;;18.76
50206;BMP280;36098;48.390;10.856;2024-03-02T13:33:51;94778.84;;;18.76
50206;BMP280;36098;48.390;10.856;2024-03-02T13:36:16;94767.84;;;18.79
50206;BMP280;36098;48.390;10.856;2024-03-02T13:38:43;94766.53;;;18.81
50206;BMP280;36098;48.390;10.856;2024-03-02T13:41:08;94769.91;;;18.82
50206;BMP280;36098;48.390;10.856;2024-03-02T13:43:34;94764.44;;;18.83
50206;BMP280;36098;48.390;10.856;2024-03-02T13:46:01;94764.94;;;18.85
50206;BMP280;36098;48.390;10.856;2024-03-02T13:48:27;94766.50;;;18.86
50206;BMP280;36098;48.390;10.856;2024-03-02T13:50:52;94760.50;;;18.86
50206;BMP280;36098;48.390;10.856;2024-03-02T13:53:18;94759.94;;;18.89
50206;BMP280;36098;48.390;10.856;2024-03-02T13:55:44;94760.16;;;18.92
50206;BMP280;36098;48.390;10.856;2024-03-02T13:58:10;94758.34;;;18.93